createdAt,value
2023-05-10T00:00:58.625Z,401.00
2023-05-10T00:01:58.752Z,401.00
2023-05-10T00:02:58.799Z,404.00
2023-05-10T00:03:58.915Z,402.00
2023-05-10T00:04:58.866Z,401.00
2023-05-10T00:05:59.070Z,402.00
2023-05-10T00:06:59.013Z,403.00
2023-05-10T00:07:59.037Z,405.00
2023-05-10T00:08:59.117Z,405.00
2023-05-10T00:09:59.162Z,406.00
2023-05-10T00:10:59.217Z,404.00
2023-05-10T00:11:59.410Z,404.00
2023-05-10T00:12:59.387Z,401.00
2023-05-10T00:13:59.421Z,402.00
2023-05-10T00:14:59.466Z,401.00
2023-05-10T00:15:59.660Z,401.00
2023-05-10T00:16:59.605Z,403.00
2023-05-10T00:17:59.698Z,403.00
2023-05-10T00:18:59.708Z,405.00
2023-05-10T00:19:59.756Z,405.00
2023-05-10T00:20:59.841Z,406.00
2023-05-10T00:22:00.006Z,407.00
2023-05-10T00:23:00.024Z,408.00
2023-05-10T00:24:00.042Z,409.00
2023-05-10T00:25:00.089Z,407.00
2023-05-10T00:26:00.166Z,406.00
2023-05-10T00:27:00.242Z,405.00
2023-05-10T00:28:00.403Z,404.00
2023-05-10T00:29:00.345Z,403.00
2023-05-10T00:30:00.394Z,402.00
2023-05-10T00:31:00.478Z,401.00
2023-05-10T00:32:00.537Z,405.00
2023-05-10T00:33:00.590Z,406.00
2023-05-10T00:34:00.647Z,406.00
2023-05-10T00:35:00.691Z,408.00
2023-05-10T00:36:00.862Z,407.00
2023-05-10T00:37:00.994Z,408.00
2023-05-10T00:38:00.863Z,408.00
2023-05-10T00:39:00.930Z,408.00
2023-05-10T00:40:00.984Z,409.00
2023-05-10T00:41:01.052Z,406.00
2023-05-10T00:42:01.121Z,406.00
2023-05-10T00:43:01.186Z,408.00
2023-05-10T00:44:01.257Z,411.00
2023-05-10T00:45:01.255Z,409.00
2023-05-10T00:46:01.372Z,408.00
2023-05-10T00:47:01.436Z,407.00
2023-05-10T00:48:01.458Z,406.00
2023-05-10T00:49:01.477Z,405.00
2023-05-10T00:50:01.531Z,405.00
2023-05-10T00:51:01.610Z,406.00
2023-05-10T00:52:01.656Z,408.00
2023-05-10T00:53:01.650Z,408.00
2023-05-10T00:54:01.688Z,410.00
2023-05-10T00:55:01.705Z,410.00
2023-05-10T00:56:01.725Z,408.00
2023-05-10T00:57:01.745Z,406.00
2023-05-10T00:58:01.784Z,406.00
2023-05-10T00:59:01.774Z,405.00
2023-05-10T01:00:01.800Z,403.00
2023-05-10T01:01:01.867Z,402.00
2023-05-10T01:02:01.877Z,402.00
2023-05-10T01:03:02.051Z,403.00
2023-05-10T01:04:02.047Z,404.00
2023-05-10T01:05:01.960Z,404.00
2023-05-10T01:06:01.945Z,406.00
2023-05-10T01:07:01.946Z,407.00
2023-05-10T01:08:02.002Z,407.00
2023-05-10T01:09:02.022Z,410.00
2023-05-10T01:10:02.210Z,409.00
2023-05-10T01:11:02.128Z,411.00
2023-05-10T01:12:02.204Z,409.00
2023-05-10T01:13:02.236Z,408.00
2023-05-10T01:14:02.285Z,407.00
2023-05-10T01:15:02.203Z,406.00
2023-05-10T01:16:02.351Z,408.00
2023-05-10T01:17:02.300Z,410.00
2023-05-10T01:18:02.262Z,411.00
2023-05-10T01:19:02.296Z,411.00
2023-05-10T01:20:02.379Z,414.00
2023-05-10T01:21:02.354Z,414.00
2023-05-10T01:22:02.409Z,412.00
2023-05-10T01:23:02.426Z,409.00
2023-05-10T01:24:02.449Z,407.00
2023-05-10T01:25:02.517Z,407.00
2023-05-10T01:26:02.539Z,407.00
2023-05-10T01:27:02.553Z,407.00
2023-05-10T01:28:02.582Z,409.00
2023-05-10T01:29:02.648Z,410.00
2023-05-10T01:30:21.746Z,413.00
2023-05-10T01:31:03.659Z,413.00
2023-05-10T01:32:02.639Z,413.00
2023-05-10T01:33:02.796Z,412.00
2023-05-10T01:34:02.657Z,411.00
2023-05-10T01:35:02.617Z,411.00
2023-05-10T01:36:02.642Z,412.00
2023-05-10T01:37:02.612Z,409.00
2023-05-10T01:38:02.604Z,408.00
2023-05-10T01:39:02.593Z,408.00
2023-05-10T01:40:02.582Z,407.00
2023-05-10T01:41:02.612Z,407.00
2023-05-10T01:42:02.720Z,407.00
2023-05-10T01:43:02.689Z,410.00
2023-05-10T01:44:02.698Z,410.00
2023-05-10T01:45:02.737Z,409.00
2023-05-10T01:46:02.779Z,410.00
2023-05-10T01:47:02.883Z,408.00
2023-05-10T01:48:02.860Z,407.00
2023-05-10T01:49:02.921Z,407.00
2023-05-10T01:50:02.921Z,406.00
2023-05-10T01:51:02.947Z,405.00
2023-05-10T01:52:02.961Z,406.00
2023-05-10T01:53:02.976Z,406.00
2023-05-10T01:54:03.141Z,405.00
2023-05-10T01:55:03.050Z,405.00
2023-05-10T01:56:03.080Z,404.00
2023-05-10T01:57:03.072Z,404.00
2023-05-10T01:58:03.098Z,403.00
2023-05-10T01:59:03.122Z,403.00
2023-05-10T02:00:03.174Z,404.00
2023-05-10T02:01:03.262Z,403.00
2023-05-10T02:02:03.241Z,403.00
2023-05-10T02:03:03.310Z,404.00
2023-05-10T02:04:03.305Z,406.00
2023-05-10T02:05:03.325Z,406.00
2023-05-10T02:06:03.360Z,409.00
2023-05-10T02:07:03.378Z,410.00
2023-05-10T02:08:03.407Z,408.00
2023-05-10T02:09:03.453Z,407.00
2023-05-10T02:10:03.480Z,409.00
2023-05-10T02:11:03.614Z,409.00
2023-05-10T02:12:03.559Z,409.00
2023-05-10T02:13:03.568Z,407.00
2023-05-10T02:14:03.552Z,407.00
2023-05-10T02:15:03.542Z,409.00
2023-05-10T02:16:03.551Z,409.00
2023-05-10T02:17:03.614Z,409.00
2023-05-10T02:18:03.632Z,407.00
2023-05-10T02:19:03.616Z,405.00
2023-05-10T02:20:03.579Z,406.00
2023-05-10T02:21:03.600Z,407.00
2023-05-10T02:22:03.683Z,408.00
2023-05-10T02:23:03.689Z,407.00
2023-05-10T02:24:03.728Z,407.00
2023-05-10T02:25:03.727Z,408.00
2023-05-10T02:26:03.764Z,406.00
2023-05-10T02:27:03.784Z,406.00
2023-05-10T02:28:03.823Z,401.00
2023-05-10T02:29:03.873Z,403.00
2023-05-10T02:30:03.914Z,401.00
2023-05-10T02:31:03.941Z,402.00
2023-05-10T02:32:04.005Z,402.00
2023-05-10T02:33:04.051Z,404.00
2023-05-10T02:34:04.041Z,405.00
2023-05-10T02:35:04.055Z,403.00
2023-05-10T02:36:04.118Z,402.00
2023-05-10T02:37:04.125Z,402.00
2023-05-10T02:38:04.126Z,401.00
2023-05-10T02:39:04.166Z,401.00
2023-05-10T02:40:04.225Z,402.00
2023-05-10T02:41:04.258Z,402.00
2023-05-10T02:42:04.195Z,402.00
2023-05-10T02:43:04.193Z,401.00
2023-05-10T02:44:04.221Z,400.00
2023-05-10T02:45:04.243Z,401.00
2023-05-10T02:46:04.273Z,399.00
2023-05-10T02:47:04.264Z,401.00
2023-05-10T02:48:04.297Z,400.00
2023-05-10T02:49:04.327Z,399.00
2023-05-10T02:50:04.387Z,402.00
2023-05-10T02:51:04.344Z,405.00
2023-05-10T02:52:04.351Z,404.00
2023-05-10T02:53:04.482Z,405.00
2023-05-10T02:54:04.393Z,403.00
2023-05-10T02:55:04.394Z,404.00
2023-05-10T02:56:04.411Z,404.00
2023-05-10T02:57:04.446Z,402.00
2023-05-10T02:58:04.465Z,403.00
2023-05-10T02:59:04.515Z,402.00
2023-05-10T03:00:04.536Z,403.00
2023-05-10T03:01:04.606Z,405.00
2023-05-10T03:02:04.613Z,405.00
2023-05-10T03:03:04.685Z,405.00
2023-05-10T03:04:04.747Z,404.00
2023-05-10T03:05:04.700Z,402.00
2023-05-10T03:06:04.728Z,401.00
2023-05-10T03:07:04.731Z,403.00
2023-05-10T03:08:04.724Z,404.00
2023-05-10T03:09:04.737Z,404.00
2023-05-10T03:10:04.751Z,403.00
2023-05-10T03:11:04.736Z,403.00
2023-05-10T03:12:04.783Z,403.00
2023-05-10T03:13:04.776Z,403.00
2023-05-10T03:14:04.726Z,405.00
2023-05-10T03:15:04.731Z,407.00
2023-05-10T03:16:04.830Z,407.00
2023-05-10T03:17:04.840Z,407.00
2023-05-10T03:18:04.793Z,406.00
2023-05-10T03:19:04.782Z,404.00
2023-05-10T03:20:04.790Z,404.00
2023-05-10T03:21:04.804Z,402.00
2023-05-10T03:22:04.847Z,402.00
2023-05-10T03:23:04.850Z,401.00
2023-05-10T03:24:04.836Z,400.00
2023-05-10T03:25:04.830Z,400.00
2023-05-10T03:26:04.935Z,402.00
2023-05-10T03:27:04.801Z,404.00
2023-05-10T03:28:04.796Z,406.00
2023-05-10T03:29:04.825Z,406.00
2023-05-10T03:30:04.791Z,403.00
2023-05-10T03:31:04.814Z,401.00
2023-05-10T03:32:04.826Z,401.00
2023-05-10T03:33:04.913Z,401.00
2023-05-10T03:34:04.937Z,403.00
2023-05-10T03:35:04.946Z,405.00
2023-05-10T03:36:04.992Z,407.00
2023-05-10T03:37:05.038Z,408.00
2023-05-10T03:38:05.071Z,408.00
2023-05-10T03:39:05.105Z,407.00
2023-05-10T03:40:05.098Z,408.00
2023-05-10T03:41:05.146Z,406.00
2023-05-10T03:42:05.107Z,405.00
2023-05-10T03:43:05.113Z,406.00
2023-05-10T03:44:05.100Z,406.00
2023-05-10T03:45:05.119Z,409.00
2023-05-10T03:46:05.121Z,410.00
2023-05-10T03:47:05.137Z,409.00
2023-05-10T03:48:05.147Z,408.00
2023-05-10T03:49:05.122Z,408.00
2023-05-10T03:50:05.128Z,407.00
2023-05-10T03:51:05.152Z,407.00
2023-05-10T03:52:05.294Z,405.00
2023-05-10T03:53:05.187Z,404.00
2023-05-10T03:54:05.203Z,403.00
2023-05-10T03:55:05.204Z,402.00
2023-05-10T03:56:05.198Z,402.00
2023-05-10T03:57:05.202Z,403.00
2023-05-10T03:58:05.216Z,405.00
2023-05-10T03:59:05.226Z,406.00
2023-05-10T04:00:05.251Z,406.00
2023-05-10T04:01:05.284Z,407.00
2023-05-10T04:02:05.398Z,406.00
2023-05-10T04:03:05.401Z,405.00
2023-05-10T04:04:05.460Z,404.00
2023-05-10T04:05:05.456Z,405.00
2023-05-10T04:06:05.496Z,408.00
2023-05-10T04:07:05.533Z,407.00
2023-05-10T04:08:05.554Z,405.00
2023-05-10T04:09:05.622Z,406.00
2023-05-10T04:10:05.648Z,403.00
2023-05-10T04:11:05.695Z,404.00
2023-05-10T04:12:05.749Z,403.00
2023-05-10T04:13:05.799Z,404.00
2023-05-10T04:14:05.825Z,403.00
2023-05-10T04:15:05.880Z,405.00
2023-05-10T04:16:05.925Z,403.00
2023-05-10T04:17:06.045Z,402.00
2023-05-10T04:18:07.993Z,401.00
2023-05-10T04:19:06.084Z,401.00
2023-05-10T04:20:05.951Z,401.00
2023-05-10T04:21:06.012Z,401.00
2023-05-10T04:22:05.962Z,401.00
2023-05-10T04:23:05.946Z,401.00
2023-05-10T04:24:05.930Z,403.00
2023-05-10T04:25:05.934Z,405.00
2023-05-10T04:26:05.907Z,408.00
2023-05-10T04:27:05.914Z,409.00
2023-05-10T04:28:06.012Z,408.00
2023-05-10T04:29:05.907Z,408.00
2023-05-10T04:30:05.900Z,406.00
2023-05-10T04:31:05.990Z,404.00
2023-05-10T04:32:05.880Z,404.00
2023-05-10T04:33:05.929Z,402.00
2023-05-10T04:34:05.922Z,399.00
2023-05-10T04:35:05.944Z,397.00
2023-05-10T04:36:05.848Z,397.00
2023-05-10T04:37:05.857Z,398.00
2023-05-10T04:38:05.843Z,400.00
2023-05-10T04:39:05.828Z,402.00
2023-05-10T04:40:05.823Z,401.00
2023-05-10T04:41:05.834Z,401.00
2023-05-10T04:42:05.821Z,401.00
2023-05-10T04:43:05.802Z,400.00
2023-05-10T04:44:05.927Z,401.00
2023-05-10T04:45:05.781Z,404.00
2023-05-10T04:46:05.886Z,406.00
2023-05-10T04:47:05.762Z,405.00
2023-05-10T04:48:05.815Z,404.00
2023-05-10T04:49:05.778Z,402.00
2023-05-10T04:50:05.761Z,401.00
2023-05-10T04:51:05.824Z,402.00
2023-05-10T04:52:05.732Z,402.00
2023-05-10T04:53:05.752Z,401.00
2023-05-10T04:54:06.802Z,402.00
2023-05-10T04:55:05.728Z,404.00
2023-05-10T04:56:05.717Z,405.00
2023-05-10T04:57:05.727Z,404.00
2023-05-10T04:58:05.712Z,404.00
2023-05-10T04:59:05.728Z,402.00
2023-05-10T05:00:05.703Z,403.00
2023-05-10T05:01:05.699Z,403.00
2023-05-10T05:02:05.823Z,402.00
2023-05-10T05:03:05.712Z,400.00
2023-05-10T05:04:05.662Z,401.00
2023-05-10T05:05:05.651Z,403.00
2023-05-10T05:06:05.649Z,402.00
2023-05-10T05:07:05.655Z,402.00
2023-05-10T05:08:05.629Z,403.00
2023-05-10T05:09:05.638Z,405.00
2023-05-10T05:10:05.621Z,405.00
2023-05-10T05:11:05.625Z,405.00
2023-05-10T05:12:05.631Z,408.00
2023-05-10T05:13:05.647Z,407.00
2023-05-10T05:14:05.629Z,407.00
2023-05-10T05:15:07.223Z,406.00
2023-05-10T05:16:05.602Z,406.00
2023-05-10T05:17:05.590Z,404.00
2023-05-10T05:18:05.614Z,403.00
2023-05-10T05:19:05.601Z,402.00
2023-05-10T05:20:05.568Z,401.00
2023-05-10T05:21:05.572Z,400.00
2023-05-10T05:22:05.557Z,399.00
2023-05-10T05:23:05.543Z,402.00
2023-05-10T05:24:05.721Z,403.00
2023-05-10T05:25:05.560Z,404.00
2023-05-10T05:26:05.510Z,404.00
2023-05-10T05:27:05.521Z,406.00
2023-05-10T05:28:05.516Z,412.00
2023-05-10T05:29:05.869Z,413.00
2023-05-10T05:30:05.490Z,419.00
2023-05-10T05:31:05.618Z,422.00
2023-05-10T05:32:05.525Z,428.00
2023-05-10T05:33:05.505Z,446.00
2023-05-10T05:34:05.479Z,465.00
2023-05-10T05:35:05.459Z,496.00
2023-05-10T05:36:05.670Z,554.00
2023-05-10T05:37:05.448Z,559.00
2023-05-10T05:38:05.427Z,583.00
2023-05-10T05:39:05.464Z,653.00
2023-05-10T05:40:05.592Z,663.00
2023-05-10T05:41:05.415Z,682.00
2023-05-10T05:42:05.446Z,742.00
2023-05-10T05:43:05.411Z,746.00
2023-05-10T05:44:05.386Z,764.00
2023-05-10T05:45:05.388Z,787.00
2023-05-10T05:46:05.443Z,810.00
2023-05-10T05:47:05.376Z,845.00
2023-05-10T05:48:05.399Z,858.00
2023-05-10T05:49:05.375Z,868.00
2023-05-10T05:50:05.357Z,899.00
2023-05-10T05:51:07.172Z,898.00
2023-05-10T05:52:05.354Z,907.00
2023-05-10T05:53:05.343Z,906.00
2023-05-10T05:54:05.322Z,933.00
2023-05-10T05:55:05.331Z,981.00
2023-05-10T05:56:05.346Z,951.00
2023-05-10T05:57:05.351Z,943.00
2023-05-10T05:58:05.316Z,948.00
2023-05-10T05:59:05.293Z,942.00
2023-05-10T06:00:05.292Z,865.00
2023-05-10T06:01:05.329Z,927.00
2023-05-10T06:02:05.412Z,824.00
2023-05-10T06:03:05.438Z,921.00
2023-05-10T06:04:05.515Z,883.00
2023-05-10T06:05:05.438Z,865.00
2023-05-10T06:06:05.485Z,808.00
2023-05-10T06:07:05.527Z,882.00
2023-05-10T06:08:05.596Z,911.00
2023-05-10T06:09:05.587Z,884.00
2023-05-10T06:10:05.640Z,872.00
2023-05-10T06:11:05.645Z,873.00
2023-05-10T06:12:05.695Z,878.00
2023-05-10T06:13:05.758Z,888.00
2023-05-10T06:14:05.752Z,894.00
2023-05-10T06:15:05.848Z,801.00
2023-05-10T06:16:05.819Z,779.00
2023-05-10T06:17:05.857Z,802.00
2023-05-10T06:18:06.016Z,808.00
2023-05-10T06:19:05.900Z,868.00
2023-05-10T06:20:06.354Z,874.00
2023-05-10T06:21:05.932Z,872.00
2023-05-10T06:22:05.950Z,879.00
2023-05-10T06:23:05.961Z,886.00
2023-05-10T06:24:06.020Z,884.00
2023-05-10T06:25:06.064Z,894.00
2023-05-10T06:26:06.123Z,906.00
2023-05-10T06:27:06.213Z,919.00
2023-05-10T06:28:06.262Z,936.00
2023-05-10T06:29:06.304Z,927.00
2023-05-10T06:30:12.791Z,925.00
2023-05-10T06:31:07.392Z,932.00
2023-05-10T06:32:06.380Z,928.00
2023-05-10T06:33:06.458Z,924.00
2023-05-10T06:34:06.415Z,929.00
2023-05-10T06:35:06.873Z,841.00
2023-05-10T06:36:06.480Z,906.00
2023-05-10T06:37:06.567Z,926.00
2023-05-10T06:38:06.574Z,933.00
2023-05-10T06:39:06.639Z,938.00
2023-05-10T06:40:06.839Z,722.00
2023-05-10T06:41:06.728Z,689.00
2023-05-10T06:42:06.760Z,652.00
2023-05-10T06:43:06.764Z,620.00
2023-05-10T06:44:06.821Z,619.00
2023-05-10T06:45:06.871Z,618.00
2023-05-10T06:46:06.951Z,633.00
2023-05-10T06:47:06.898Z,674.00
2023-05-10T06:48:06.947Z,669.00
2023-05-10T06:49:06.914Z,657.00
2023-05-10T06:50:06.935Z,599.00
2023-05-10T06:51:06.938Z,600.00
2023-05-10T06:52:06.927Z,605.00
2023-05-10T06:53:06.937Z,609.00
2023-05-10T06:54:06.965Z,609.00
2023-05-10T06:55:06.955Z,615.00
2023-05-10T06:56:06.948Z,608.00
2023-05-10T06:57:10.978Z,609.00
2023-05-10T06:58:07.984Z,614.00
2023-05-10T06:59:07.057Z,618.00
2023-05-10T07:00:07.059Z,601.00
2023-05-10T07:01:07.019Z,594.00
2023-05-10T07:02:06.991Z,586.00
2023-05-10T07:03:06.978Z,590.00
2023-05-10T07:04:06.946Z,582.00
2023-05-10T07:05:06.952Z,583.00
2023-05-10T07:06:07.175Z,587.00
2023-05-10T07:07:06.936Z,593.00
2023-05-10T07:08:06.897Z,650.00
2023-05-10T07:09:06.912Z,649.00
2023-05-10T07:10:06.898Z,719.00
2023-05-10T07:11:06.890Z,726.00
2023-05-10T07:12:08.223Z,765.00
2023-05-10T07:13:06.991Z,787.00
2023-05-10T07:14:06.857Z,806.00
2023-05-10T07:15:06.892Z,829.00
2023-05-10T07:16:06.900Z,845.00
2023-05-10T07:17:06.906Z,859.00
2023-05-10T07:18:06.973Z,868.00
2023-05-10T07:19:06.840Z,889.00
2023-05-10T07:20:06.823Z,908.00
2023-05-10T07:21:06.857Z,921.00
2023-05-10T07:22:06.801Z,927.00
2023-05-10T07:23:06.831Z,959.00
2023-05-10T07:24:06.808Z,988.00
2023-05-10T07:25:06.843Z,984.00
2023-05-10T07:26:06.789Z,983.00
2023-05-10T07:27:06.863Z,982.00
2023-05-10T07:28:06.786Z,974.00
2023-05-10T07:29:06.825Z,883.00
2023-05-10T07:30:06.770Z,902.00
2023-05-10T07:31:06.817Z,895.00
2023-05-10T07:32:06.957Z,894.00
2023-05-10T07:33:06.815Z,967.00
2023-05-10T07:34:06.751Z,962.00
2023-05-10T07:35:06.745Z,895.00
2023-05-10T07:36:06.719Z,957.00
2023-05-10T07:37:06.712Z,959.00
2023-05-10T07:38:06.739Z,953.00
2023-05-10T07:39:06.714Z,898.00
2023-05-10T07:40:06.707Z,838.00
2023-05-10T07:41:06.696Z,877.00
2023-05-10T07:42:06.700Z,895.00
2023-05-10T07:43:06.687Z,914.00
2023-05-10T07:44:06.696Z,923.00
2023-05-10T07:45:06.677Z,924.00
2023-05-10T07:46:06.702Z,899.00
2023-05-10T07:47:06.668Z,801.00
2023-05-10T07:48:06.703Z,720.00
2023-05-10T07:49:06.647Z,741.00
2023-05-10T07:50:06.880Z,787.00
2023-05-10T07:51:06.619Z,798.00
2023-05-10T07:52:06.626Z,739.00
2023-05-10T07:53:06.637Z,834.00
2023-05-10T07:54:06.599Z,844.00
2023-05-10T07:55:06.862Z,853.00
2023-05-10T07:56:06.602Z,751.00
2023-05-10T07:57:06.603Z,793.00
2023-05-10T07:58:06.590Z,820.00
2023-05-10T07:59:06.586Z,824.00
2023-05-10T08:00:06.885Z,833.00
2023-05-10T08:01:06.555Z,830.00
2023-05-10T08:02:06.580Z,832.00
2023-05-10T08:03:06.737Z,752.00
2023-05-10T08:04:06.654Z,748.00
2023-05-10T08:05:06.534Z,738.00
2023-05-10T08:06:06.671Z,743.00
2023-05-10T08:07:06.572Z,742.00
2023-05-10T08:08:06.509Z,761.00
2023-05-10T08:09:06.533Z,762.00
2023-05-10T08:10:06.510Z,759.00
2023-05-10T08:11:06.500Z,746.00
2023-05-10T08:12:06.513Z,825.00
2023-05-10T08:13:06.491Z,841.00
2023-05-10T08:14:06.668Z,853.00
2023-05-10T08:15:06.903Z,874.00
2023-05-10T08:16:06.487Z,891.00
2023-05-10T08:17:06.471Z,904.00
2023-05-10T08:18:06.535Z,917.00
2023-05-10T08:19:06.506Z,932.00
2023-05-10T08:20:06.894Z,934.00
2023-05-10T08:21:06.552Z,929.00
2023-05-10T08:22:06.617Z,913.00
2023-05-10T08:23:06.688Z,925.00
2023-05-10T08:24:06.654Z,986.00
2023-05-10T08:25:06.675Z,986.00
2023-05-10T08:26:06.693Z,977.00
2023-05-10T08:27:06.716Z,993.00
2023-05-10T08:28:06.681Z,1033.00
2023-05-10T08:29:06.732Z,1038.00
2023-05-10T08:30:06.752Z,1039.00
2023-05-10T08:31:06.879Z,1047.00
2023-05-10T08:32:06.813Z,892.00
2023-05-10T08:33:06.797Z,1051.00
2023-05-10T08:34:06.793Z,1070.00
2023-05-10T08:35:06.859Z,947.00
2023-05-10T08:36:06.897Z,855.00
2023-05-10T08:37:06.943Z,946.00
2023-05-10T08:38:06.980Z,889.00
2023-05-10T08:39:13.548Z,896.00
2023-05-10T08:40:08.669Z,905.00
2023-05-10T08:41:07.237Z,909.00
2023-05-10T08:42:07.187Z,910.00
2023-05-10T08:43:07.806Z,919.00
2023-05-10T08:44:07.132Z,736.00
2023-05-10T08:45:07.392Z,745.00
2023-05-10T08:46:07.044Z,729.00
2023-05-10T08:47:07.110Z,671.00
2023-05-10T08:48:07.074Z,683.00
2023-05-10T08:49:07.027Z,610.00
2023-05-10T08:50:07.003Z,572.00
2023-05-10T08:51:07.046Z,557.00
2023-05-10T08:52:07.089Z,535.00
2023-05-10T08:53:07.150Z,521.00
2023-05-10T08:54:07.212Z,513.00
2023-05-10T08:55:07.305Z,505.00
2023-05-10T08:56:07.277Z,499.00
2023-05-10T08:57:07.326Z,495.00
2023-05-10T08:58:07.402Z,491.00
2023-05-10T08:59:07.381Z,483.00
2023-05-10T09:00:07.435Z,482.00
2023-05-10T09:01:07.589Z,483.00
2023-05-10T09:02:07.538Z,488.00
2023-05-10T09:03:07.614Z,496.00
2023-05-10T09:04:07.701Z,501.00
2023-05-10T09:05:07.620Z,511.00
2023-05-10T09:06:07.586Z,518.00
2023-05-10T09:07:07.635Z,524.00
2023-05-10T09:08:07.689Z,522.00
2023-05-10T09:09:07.651Z,518.00
2023-05-10T09:10:07.905Z,514.00
2023-05-10T09:11:07.758Z,516.00
2023-05-10T09:12:07.773Z,513.00
2023-05-10T09:13:07.923Z,515.00
2023-05-10T09:14:07.844Z,512.00
2023-05-10T09:15:07.922Z,513.00
2023-05-10T09:16:20.263Z,510.00
2023-05-10T09:17:08.958Z,505.00
2023-05-10T09:18:07.928Z,505.00
2023-05-10T09:19:08.024Z,502.00
2023-05-10T09:20:07.894Z,498.00
2023-05-10T09:21:07.926Z,503.00
2023-05-10T09:22:07.895Z,503.00
2023-05-10T09:23:07.887Z,502.00
2023-05-10T09:24:07.916Z,504.00
2023-05-10T09:25:08.419Z,525.00
2023-05-10T09:26:07.933Z,526.00
2023-05-10T09:27:07.999Z,573.00
2023-05-10T09:28:07.835Z,583.00
2023-05-10T09:29:07.835Z,666.00
2023-05-10T09:30:07.928Z,675.00
2023-05-10T09:31:07.946Z,703.00
2023-05-10T09:32:07.818Z,712.00
2023-05-10T09:33:07.884Z,728.00
2023-05-10T09:34:07.870Z,813.00
2023-05-10T09:35:07.911Z,856.00
2023-05-10T09:36:08.415Z,866.00
2023-05-10T09:37:07.921Z,855.00
2023-05-10T09:38:07.963Z,865.00
2023-05-10T09:39:08.026Z,939.00
2023-05-10T09:40:08.005Z,961.00
2023-05-10T09:41:08.040Z,976.00
2023-05-10T09:42:08.090Z,1050.00
2023-05-10T09:43:08.160Z,1054.00
2023-05-10T09:44:08.174Z,1055.00
2023-05-10T09:45:08.224Z,1058.00
2023-05-10T09:46:08.445Z,1063.00
2023-05-10T09:47:08.369Z,1066.00
2023-05-10T09:48:08.372Z,1109.00
2023-05-10T09:49:08.362Z,1128.00
2023-05-10T09:50:08.402Z,1122.00
2023-05-10T09:51:08.453Z,1111.00
2023-05-10T09:52:08.489Z,1099.00
2023-05-10T09:53:08.490Z,1091.00
2023-05-10T09:54:08.560Z,1091.00
2023-05-10T09:55:08.625Z,1091.00
2023-05-10T09:56:08.657Z,1093.00
2023-05-10T09:57:08.725Z,1101.00
2023-05-10T09:58:08.772Z,1110.00
2023-05-10T09:59:08.845Z,1107.00
2023-05-10T10:00:08.864Z,1106.00
2023-05-10T10:01:08.974Z,1108.00
2023-05-10T10:02:08.965Z,1107.00
2023-05-10T10:03:09.036Z,1105.00
2023-05-10T10:04:09.075Z,1097.00
2023-05-10T10:05:09.231Z,1098.00
2023-05-10T10:06:18.772Z,1095.00
2023-05-10T10:07:10.148Z,1092.00
2023-05-10T10:08:09.141Z,1084.00
2023-05-10T10:09:09.126Z,1065.00
2023-05-10T10:10:09.126Z,1027.00
2023-05-10T10:11:09.128Z,1017.00
2023-05-10T10:12:09.098Z,1016.00
2023-05-10T10:13:09.123Z,1023.00
2023-05-10T10:14:09.115Z,1038.00
2023-05-10T10:15:09.083Z,1051.00
2023-05-10T10:16:09.488Z,1055.00
2023-05-10T10:17:09.273Z,1042.00
2023-05-10T10:18:09.264Z,941.00
2023-05-10T10:19:09.175Z,927.00
2023-05-10T10:20:11.715Z,806.00
2023-05-10T10:21:09.443Z,834.00
2023-05-10T10:22:09.221Z,874.00
2023-05-10T10:23:09.216Z,801.00
2023-05-10T10:24:09.188Z,668.00
2023-05-10T10:25:09.209Z,670.00
2023-05-10T10:26:09.482Z,674.00
2023-05-10T10:27:09.161Z,627.00
2023-05-10T10:28:09.153Z,592.00
2023-05-10T10:29:09.171Z,579.00
2023-05-10T10:30:09.155Z,572.00
2023-05-10T10:31:09.190Z,557.00
2023-05-10T10:32:09.159Z,537.00
2023-05-10T10:33:20.203Z,528.00
2023-05-10T10:34:10.140Z,517.00
2023-05-10T10:35:09.133Z,513.00
2023-05-10T10:36:09.485Z,504.00
2023-05-10T10:37:09.103Z,499.00
2023-05-10T10:38:09.091Z,448.00
2023-05-10T10:39:09.097Z,483.00
2023-05-10T10:40:09.116Z,480.00
2023-05-10T10:41:09.074Z,474.00
2023-05-10T10:42:09.083Z,473.00
2023-05-10T10:43:09.098Z,472.00
2023-05-10T10:44:09.064Z,473.00
2023-05-10T10:45:09.091Z,482.00
2023-05-10T10:46:09.110Z,483.00
2023-05-10T10:47:09.231Z,485.00
2023-05-10T10:48:09.259Z,488.00
2023-05-10T10:49:09.180Z,485.00
2023-05-10T10:50:09.179Z,482.00
2023-05-10T10:51:10.691Z,482.00
2023-05-10T10:52:09.199Z,486.00
2023-05-10T10:53:09.260Z,488.00
2023-05-10T10:54:09.225Z,486.00
2023-05-10T10:55:09.320Z,484.00
2023-05-10T10:56:09.207Z,485.00
2023-05-10T10:57:09.177Z,484.00
2023-05-10T10:58:09.179Z,482.00
2023-05-10T10:59:09.174Z,484.00
2023-05-10T11:00:09.161Z,484.00
2023-05-10T11:01:09.199Z,486.00
2023-05-10T11:02:09.142Z,493.00
2023-05-10T11:03:09.166Z,500.00
2023-05-10T11:04:09.189Z,502.00
2023-05-10T11:05:09.100Z,499.00
2023-05-10T11:06:09.122Z,498.00
2023-05-10T11:07:09.100Z,500.00
2023-05-10T11:08:09.104Z,502.00
2023-05-10T11:09:09.089Z,506.00
2023-05-10T11:10:09.071Z,512.00
2023-05-10T11:11:09.078Z,510.00
2023-05-10T11:12:09.059Z,507.00
2023-05-10T11:13:09.078Z,504.00
2023-05-10T11:14:09.066Z,502.00
2023-05-10T11:15:09.073Z,500.00
2023-05-10T11:16:09.515Z,501.00
2023-05-10T11:17:09.105Z,501.00
2023-05-10T11:18:09.093Z,500.00
2023-05-10T11:19:09.132Z,501.00
2023-05-10T11:20:09.019Z,501.00
2023-05-10T11:21:09.007Z,503.00
2023-05-10T11:22:09.009Z,504.00
2023-05-10T11:23:09.005Z,503.00
2023-05-10T11:24:08.979Z,503.00
2023-05-10T11:25:08.982Z,504.00
2023-05-10T11:26:08.962Z,502.00
2023-05-10T11:27:08.955Z,499.00
2023-05-10T11:28:08.954Z,497.00
2023-05-10T11:29:08.958Z,495.00
2023-05-10T11:30:08.981Z,494.00
2023-05-10T11:31:08.953Z,492.00
2023-05-10T11:32:08.920Z,490.00
2023-05-10T11:33:08.956Z,489.00
2023-05-10T11:34:08.942Z,491.00
2023-05-10T11:35:08.914Z,490.00
2023-05-10T11:36:08.897Z,488.00
2023-05-10T11:37:08.887Z,490.00
2023-05-10T11:38:08.902Z,490.00
2023-05-10T11:39:08.897Z,489.00
2023-05-10T11:40:08.888Z,488.00
2023-05-10T11:41:08.883Z,487.00
2023-05-10T11:42:08.882Z,487.00
2023-05-10T11:43:08.898Z,487.00
2023-05-10T11:44:08.901Z,487.00
2023-05-10T11:45:08.942Z,487.00
2023-05-10T11:46:09.004Z,486.00
2023-05-10T11:47:08.987Z,485.00
2023-05-10T11:48:09.080Z,484.00
2023-05-10T11:49:09.038Z,484.00
2023-05-10T11:50:09.072Z,484.00
2023-05-10T11:51:09.153Z,481.00
2023-05-10T11:52:09.146Z,482.00
2023-05-10T11:53:09.168Z,478.00
2023-05-10T11:54:09.189Z,478.00
2023-05-10T11:55:09.236Z,478.00
2023-05-10T11:56:09.275Z,476.00
2023-05-10T11:57:09.333Z,473.00
2023-05-10T11:58:09.407Z,469.00
2023-05-10T11:59:09.499Z,470.00
2023-05-10T12:00:09.446Z,470.00
2023-05-10T12:01:09.467Z,472.00
2023-05-10T12:02:09.499Z,473.00
2023-05-10T12:03:09.606Z,472.00
2023-05-10T12:04:09.803Z,470.00
2023-05-10T12:05:09.679Z,471.00
2023-05-10T12:06:09.981Z,471.00
2023-05-10T12:07:09.685Z,469.00
2023-05-10T12:08:09.691Z,466.00
2023-05-10T12:09:09.740Z,464.00
2023-05-10T12:10:09.766Z,463.00
2023-05-10T12:11:10.004Z,465.00
2023-05-10T12:12:09.851Z,464.00
2023-05-10T12:13:09.863Z,463.00
2023-05-10T12:14:09.898Z,465.00
2023-05-10T12:15:09.941Z,464.00
2023-05-10T12:16:09.997Z,466.00
2023-05-10T12:17:09.957Z,465.00
2023-05-10T12:18:10.050Z,465.00
2023-05-10T12:19:10.207Z,463.00
2023-05-10T12:20:09.976Z,461.00
2023-05-10T12:21:10.036Z,459.00
2023-05-10T12:22:09.985Z,458.00
2023-05-10T12:23:10.054Z,457.00
2023-05-10T12:24:10.001Z,456.00
2023-05-10T12:25:10.012Z,456.00
2023-05-10T12:26:10.049Z,457.00
2023-05-10T12:27:10.059Z,457.00
2023-05-10T12:28:10.091Z,458.00